Hauptseite
METAR-TAF:

METAR-TAF

Flughäfen :

Flughafen Florenz

Florenz, Italien

Breite: 43-48N, Länge: 011-12E, Höhe: 40 m

Beobachtung

Neuester Wetterbericht von vor 35 Minuten, um 10:20 UTC
Wind 7 kt aus Ost/Nordost, variierte zwischen Nord/Nordost und Ost
Temperatur 10°C
Luftfeuchtigkeit 57%
Luftdruck 1015 hPa
Sichtweite 10 km oder mehr
Aufgelockert bewölkt in der Höhe von 6000 ft

METAR: LIRQ 191020Z 06007KT 030V100 9999 SCT060 10/02 Q1015

Zeit: 11:55 (10:55 UTC)

Prognose

Neuester Wetterbericht von vor 5 Stunden und 55 Minuten, um 05:00 UTC
Gültige Prognose vom 19 um 06 UTC bis 20 um 06 UTC
Wind 5 kt aus unterschiedlichen Richtungen
Sichtweite 10 km oder mehr
Aufgelockert bewölkt in der Höhe von 3000 ft

TAF: LIRQ 190500Z 1906/2006 VRB05KT 9999 SCT030

Wetterbeobachtungen und Prognosen von mehr als 4000 Flughäfen (METAR und TAF Bericht).

Die verfügbaren Stationen werden durch gelbe und rote Markierungen auf der Karte dargestellt.

Führen Sie die Maus auf sie, um den Namen der Station zu sehen.

Darauf klicken, um die Beobachtung von Wetterbeobachtungen und Prognosen zu sehen.

Um die Karte zu ändern : klicken Sie auf den grünen Tasten mit einem schwarzen Kreuz Zum Vergrößern, auf den grünen Button mit einem Gedankenstrich zu verkleinern, oder auf die grünen Pfeile für benachbarte Karten.


METAR-TAF: